Time;durP1;ratioP1;P1;durP2;ratioP2;P2;SDS_P1;SDS_P2;PMS_P1;PMS_P2;Temp;Humidity;BMP_temperature;BMP_pressure;BME280_temperature;BME280_humidity;BME280_pressure;Samples;Min_cycle;Max_cycle;Signal;HPM_P1;HPM_P2
2021/12/16 00:29:32;;;;;;;61.00;32.90;;;;;;;4.90;91.27;99994.48;212622;1323;25577;-69
2021/12/16 00:34:37;;;;;;;52.70;31.00;;;;;;;4.86;91.37;99996.92;212756;1322;25931;-70
2021/12/16 00:39:41;;;;;;;56.90;29.60;;;;;;;4.84;91.37;99993.77;212523;1323;25394;-70
2021/12/16 00:45:04;;;;;;;51.40;29.50;;;;;;;4.80;91.36;99994.20;212391;1317;24280;-70
2021/12/16 00:56:04;;;;;;;52.60;29.10;;;;;;;4.83;91.48;100003.56;212065;1325;23108;-69
2021/12/16 01:01:25;;;;;;;43.40;25.70;;;;;;;4.94;92.02;100008.73;213591;1324;23033;-71
2021/12/16 01:07:01;;;;;;;51.30;27.40;;;;;;;4.98;91.47;100004.65;213237;1324;24233;-70
2021/12/16 01:34:28;;;;;;;43.40;25.60;;;;;;;4.89;91.56;99994.52;212671;1323;23082;-69
2021/12/16 01:50:23;;;;;;;49.70;28.30;;;;;;;4.80;91.67;99984.44;212695;1322;25342;-70
2021/12/16 01:55:38;;;;;;;50.60;27.50;;;;;;;4.80;91.85;99981.02;212324;1325;25368;-70
2021/12/16 02:01:17;;;;;;;47.30;26.50;;;;;;;4.82;91.89;99983.89;213753;1322;25382;-70
2021/12/16 02:34:02;;;;;;;46.00;26.50;;;;;;;4.79;91.54;99960.60;212127;1319;22589;-71
2021/12/16 02:39:34;;;;;;;42.90;25.50;;;;;;;4.79;91.73;99957.55;212095;1325;22599;-72
2021/12/16 02:49:59;;;;;;;41.20;24.60;;;;;;;4.84;91.75;99950.09;213267;1325;22741;-70
2021/12/16 02:55:03;;;;;;;45.40;26.90;;;;;;;4.82;91.54;99955.13;213386;1324;22596;-71
2021/12/16 03:00:19;;;;;;;43.00;25.60;;;;;;;4.82;91.89;99953.21;212423;1322;22643;-69
2021/12/16 03:06:02;;;;;;;43.20;24.60;;;;;;;4.84;91.78;99954.23;213262;1325;26356;-70
2021/12/16 03:11:23;;;;;;;43.30;25.40;;;;;;;4.81;91.39;99941.17;213139;1325;22596;-70
2021/12/16 03:16:42;;;;;;;43.20;24.00;;;;;;;4.77;91.56;99944.36;212269;1324;22931;-70
2021/12/16 03:22:06;;;;;;;40.00;22.70;;;;;;;4.77;91.85;99949.48;211876;1325;22609;-69
2021/12/16 03:32:58;;;;;;;36.80;22.30;;;;;;;4.86;92.20;99965.63;211887;1325;25461;-70
2021/12/16 03:38:18;;;;;;;37.40;23.60;;;;;;;4.93;91.97;99968.86;213492;1323;25456;-70
2021/12/16 03:49:27;;;;;;;36.60;22.40;;;;;;;5.00;91.69;99971.40;212061;1323;24382;-71
2021/12/16 03:54:35;;;;;;;40.60;23.90;;;;;;;5.01;91.86;99971.59;213368;1320;24345;-70
2021/12/16 03:59:54;;;;;;;;;;;;;;;5.08;92.22;99971.04;213433;1325;22942;-70
2021/12/16 04:05:25;;;;;;;35.30;21.60;;;;;;;5.13;92.08;99972.51;212453;1322;22720;-70
2021/12/16 04:11:00;;;;;;;35.80;21.10;;;;;;;5.17;92.03;99969.81;213258;1325;25278;-70
2021/12/16 04:16:18;;;;;;;33.60;21.20;;;;;;;5.16;91.97;99976.69;212463;1325;25385;-70
2021/12/16 04:21:30;;;;;;;34.10;21.30;;;;;;;5.14;91.51;99983.38;212403;1323;26404;-69
2021/12/16 04:26:37;;;;;;;;;;;;;;;5.09;91.07;99983.89;213414;1325;25346;-70
2021/12/16 04:31:42;;;;;;;31.30;18.90;;;;;;;5.04;91.07;99984.68;212142;1324;25362;-69
2021/12/16 04:36:48;;;;;;;32.40;19.70;;;;;;;5.03;91.16;99989.02;212443;1324;25415;-71
2021/12/16 04:41:54;;;;;;;34.70;20.30;;;;;;;4.96;90.87;99985.02;212989;1324;22658;-69
2021/12/16 04:47:01;;;;;;;33.90;20.90;;;;;;;4.90;90.90;99984.56;212550;1323;25489;-71
2021/12/16 04:52:16;;;;;;;29.00;18.70;;;;;;;4.88;90.80;99980.67;212193;1325;25473;-70
2021/12/16 04:57:29;;;;;;;29.40;18.10;;;;;;;4.87;90.93;99985.67;212223;1324;25422;-70
2021/12/16 05:02:38;;;;;;;29.80;18.70;;;;;;;4.83;91.03;99979.63;212487;1324;22709;-70
2021/12/16 05:08:09;;;;;;;29.00;18.60;;;;;;;4.82;90.99;99979.97;212425;1322;22563;-70
2021/12/16 05:13:41;;;;;;;31.40;19.50;;;;;;;4.82;91.03;99978.73;213255;1324;24353;-70
2021/12/16 05:24:25;;;;;;;32.90;19.00;;;;;;;4.79;91.00;99985.23;213352;1320;24229;-71
2021/12/16 05:30:01;;;;;;;30.20;19.10;;;;;;;4.77;90.98;99993.21;212593;1318;22604;-70
2021/12/16 05:35:05;;;;;;;27.40;17.50;;;;;;;4.80;91.28;99998.56;212659;1323;25232;-70
2021/12/16 05:40:10;;;;;;;28.30;18.20;;;;;;;4.79;91.17;100000.59;212301;1313;236444;-70
2021/12/16 05:45:35;;;;;;;31.40;18.70;;;;;;;4.76;91.00;99997.91;212715;1320;25317;-70
2021/12/16 05:50:40;;;;;;;32.40;19.20;;;;;;;4.73;90.92;99992.28;212954;1323;25239;-69
2021/12/16 05:55:44;;;;;;;29.00;17.90;;;;;;;4.68;91.07;99996.89;214301;1322;22588;-70
2021/12/16 06:01:12;;;;;;;31.50;19.50;;;;;;;4.64;91.23;100003.55;213839;1323;25260;-70
2021/12/16 06:06:32;;;;;;;30.10;17.80;;;;;;;4.62;91.01;100005.89;212481;1323;22762;-71
2021/12/16 06:11:51;;;;;;;28.60;17.40;;;;;;;4.60;91.09;99995.66;213166;1323;25498;-70
2021/12/16 06:22:55;;;;;;;28.80;18.70;;;;;;;4.53;91.38;100002.42;212434;1323;22657;-71
2021/12/16 06:28:05;;;;;;;34.00;20.00;;;;;;;4.52;91.43;100010.93;212344;1319;24350;-71
2021/12/16 06:33:15;;;;;;;28.70;18.80;;;;;;;4.54;91.56;100010.14;212036;1327;22716;-70
2021/12/16 06:38:22;;;;;;;30.00;18.20;;;;;;;4.57;91.73;100016.88;212291;1322;24430;-72
2021/12/16 06:43:54;;;;;;;31.00;18.90;;;;;;;4.61;91.74;100010.27;213470;1316;22619;-70
2021/12/16 06:48:59;;;;;;;27.40;18.10;;;;;;;4.63;91.54;100011.27;213531;1323;22823;-70
2021/12/16 06:54:12;;;;;;;30.50;19.60;;;;;;;4.69;91.52;100012.98;212245;1316;23145;-70
2021/12/16 06:59:31;;;;;;;31.00;18.20;;;;;;;4.75;91.62;100012.48;212505;1324;22631;-70
2021/12/16 07:04:36;;;;;;;35.00;21.20;;;;;;;4.79;91.39;100013.02;214559;1318;22625;-71
2021/12/16 07:09:42;;;;;;;33.60;20.90;;;;;;;4.81;91.39;100016.00;211512;1316;22578;-69
2021/12/16 07:15:11;;;;;;;34.10;20.50;;;;;;;4.84;91.32;100007.64;211771;1318;22597;-69
2021/12/16 07:20:26;;;;;;;33.20;21.30;;;;;;;4.88;91.29;100003.10;212094;1316;22706;-69
2021/12/16 07:25:41;;;;;;;32.40;20.40;;;;;;;4.94;91.37;99999.33;213739;1316;25435;-70
2021/12/16 07:30:59;;;;;;;31.70;18.20;;;;;;;4.99;91.33;100005.33;213834;1316;22725;-70
2021/12/16 07:36:24;;;;;;;30.20;18.20;;;;;;;5.05;91.03;100010.37;213670;1315;27335;-70
2021/12/16 07:41:39;;;;;;;29.20;18.80;;;;;;;5.15;91.29;100014.38;213694;1315;22686;-71
2021/12/16 07:46:53;;;;;;;31.40;18.50;;;;;;;5.18;90.98;100016.98;213873;1315;22597;-70
2021/12/16 07:52:16;;;;;;;26.70;16.80;;;;;;;5.25;91.07;100025.09;213796;1315;22701;-71
2021/12/16 07:57:55;;;;;;;30.70;18.90;;;;;;;5.35;90.70;100022.98;213990;1315;22645;-71
2021/12/16 08:03:09;;;;;;;33.80;19.60;;;;;;;5.36;90.15;100018.95;213703;1315;24300;-71
2021/12/16 08:08:34;;;;;;;34.40;19.50;;;;;;;5.32;90.38;100011.36;213960;1315;26494;-72
2021/12/16 08:13:36;;;;;;;32.90;19.70;;;;;;;5.35;90.38;100020.32;214014;1315;25250;-71
2021/12/16 08:18:39;;;;;;;29.50;18.40;;;;;;;5.35;90.40;100015.73;214060;1316;22578;-71
2021/12/16 08:24:26;;;;;;;28.80;18.40;;;;;;;5.38;90.51;100012.30;214084;1315;22630;-71
2021/12/16 08:30:22;;;;;;;30.30;18.80;;;;;;;5.42;90.65;100015.13;213944;1316;25383;-70
2021/12/16 08:35:33;;;;;;;37.30;21.90;;;;;;;5.44;90.20;100016.05;214277;1315;22602;-71
2021/12/16 08:40:38;;;;;;;37.20;22.70;;;;;;;5.47;90.37;100023.23;214046;1315;22672;-71
2021/12/16 08:45:55;;;;;;;43.40;23.30;;;;;;;5.48;90.42;100023.08;213986;1316;22576;-70
2021/12/16 08:56:13;;;;;;;44.40;21.50;;;;;;;5.61;90.51;100025.76;213762;1316;24260;-71
2021/12/16 09:02:08;;;;;;;37.40;21.60;;;;;;;5.71;90.55;100022.60;213771;1315;25291;-71
2021/12/16 09:07:14;;;;;;;30.90;18.70;;;;;;;5.75;90.26;100022.13;213855;1315;22645;-70
2021/12/16 09:18:09;;;;;;;22.50;14.30;;;;;;;5.88;90.62;100022.33;213782;1315;22582;-70
2021/12/16 09:23:37;;;;;;;25.20;16.00;;;;;;;5.95;90.46;100019.81;213703;1315;25734;-71
2021/12/16 09:28:41;;;;;;;24.90;15.00;;;;;;;6.00;90.21;100012.33;214155;1315;22733;-71
2021/12/16 09:34:07;;;;;;;30.10;16.70;;;;;;;6.03;90.17;100006.48;214477;1315;23415;-71
2021/12/16 09:39:21;;;;;;;23.50;14.80;;;;;;;6.09;90.56;100004.18;214945;1315;22570;-71
2021/12/16 09:44:27;;;;;;;26.50;14.80;;;;;;;6.15;90.63;99997.32;212335;1315;23096;-73
2021/12/16 09:49:30;;;;;;;24.20;15.80;;;;;;;6.21;90.38;99991.98;214019;1315;22947;-71
2021/12/16 09:54:34;;;;;;;25.80;15.50;;;;;;;6.29;90.80;99993.98;214087;1315;22633;-69
2021/12/16 09:59:40;;;;;;;25.60;15.80;;;;;;;6.32;90.28;100010.61;213947;1315;25339;-71
2021/12/16 10:04:43;;;;;;;23.70;15.40;;;;;;;6.31;90.20;100010.54;213944;1315;25175;-72
2021/12/16 10:09:51;;;;;;;29.10;17.10;;;;;;;6.29;90.09;100007.83;214312;1315;23354;-71
2021/12/16 10:15:05;;;;;;;28.90;17.00;;;;;;;6.16;89.61;100002.19;213808;1315;22587;-72
2021/12/16 10:20:38;;;;;;;26.90;16.30;;;;;;;6.11;90.09;99999.23;214472;1315;22671;-70
2021/12/16 10:26:04;;;;;;;24.40;16.00;;;;;;;6.14;90.53;99999.10;214049;1315;24261;-70
2021/12/16 10:31:31;;;;;;;24.40;15.40;;;;;;;6.23;90.74;99999.57;214133;1316;24231;-71
2021/12/16 10:36:45;;;;;;;20.80;14.20;;;;;;;6.34;90.94;99997.55;213930;1315;24919;-69
2021/12/16 10:42:00;;;;;;;23.50;14.80;;;;;;;6.42;90.59;99996.52;215788;1315;24336;-71
2021/12/16 10:47:13;;;;;;;19.90;15.20;;;;;;;6.50;90.55;99985.33;214346;1315;23123;-70
2021/12/16 10:52:27;;;;;;;19.70;14.60;;;;;;;6.58;90.33;99975.41;214504;1315;22607;-71
2021/12/16 10:57:32;;;;;;;21.60;13.50;;;;;;;6.63;90.24;99976.01;213973;1315;22743;-70
2021/12/16 11:02:42;;;;;;;22.90;15.90;;;;;;;6.64;90.47;99978.10;214463;1315;25285;-70
2021/12/16 11:07:59;;;;;;;29.30;17.60;;;;;;;6.73;90.95;99977.51;214119;1315;22614;-70
2021/12/16 11:13:26;;;;;;;27.20;17.80;;;;;;;6.77;90.55;99981.48;214192;1315;25262;-70
2021/12/16 11:18:49;;;;;;;26.50;17.80;;;;;;;6.72;90.56;99969.98;213773;1315;23463;-70
2021/12/16 11:24:34;;;;;;;23.10;16.20;;;;;;;6.76;90.60;99968.16;213943;1315;24193;-71
2021/12/16 11:29:57;;;;;;;26.70;16.70;;;;;;;6.78;90.29;99980.34;213941;1315;22761;-70
2021/12/16 11:35:05;;;;;;;22.80;16.60;;;;;;;6.79;90.50;99985.88;214080;1315;24253;-71
2021/12/16 11:40:13;;;;;;;25.30;18.40;;;;;;;6.79;90.52;99977.68;213989;1315;24470;-70
2021/12/16 11:45:51;;;;;;;24.30;17.20;;;;;;;6.77;90.66;99970.79;213968;1316;22778;-71
2021/12/16 11:51:10;;;;;;;20.90;16.00;;;;;;;6.78;90.68;99967.87;214047;1315;23117;-70
2021/12/16 11:56:13;;;;;;;16.80;12.90;;;;;;;6.77;90.27;99959.64;214326;1315;22599;-70
2021/12/16 12:01:38;;;;;;;17.30;13.70;;;;;;;6.76;90.48;99964.14;214268;1315;24402;-69
2021/12/16 12:06:49;;;;;;;16.10;12.20;;;;;;;6.84;91.01;99964.36;214010;1315;22570;-71
2021/12/16 12:12:08;;;;;;;17.80;13.80;;;;;;;6.91;90.81;99973.15;214266;1315;22637;-70
2021/12/16 12:17:21;;;;;;;14.30;10.80;;;;;;;6.95;90.99;99967.01;214037;1315;23086;-71
2021/12/16 12:22:25;;;;;;;18.50;11.60;;;;;;;6.94;90.67;99961.33;214028;1315;22645;-71
2021/12/16 12:27:30;;;;;;;13.70;11.50;;;;;;;6.94;90.69;99962.07;213903;1315;24764;-70
2021/12/16 12:32:42;;;;;;;13.70;10.50;;;;;;;6.94;90.82;99957.96;214037;1315;22608;-71
2021/12/16 12:37:53;;;;;;;14.70;11.10;;;;;;;6.95;91.01;99957.77;213997;1315;24174;-71
2021/12/16 12:43:09;;;;;;;14.80;11.10;;;;;;;6.91;90.59;99963.18;213411;1318;22724;-71
2021/12/16 12:48:20;;;;;;;16.50;11.80;;;;;;;6.87;90.76;99965.48;214080;1315;25303;-73
2021/12/16 12:53:52;;;;;;;15.50;11.20;;;;;;;6.83;90.70;99974.52;213727;1315;25495;-72
2021/12/16 12:59:15;;;;;;;15.20;11.80;;;;;;;6.77;90.61;99975.89;213026;1316;22650;-72
2021/12/16 13:04:42;;;;;;;15.20;9.80;;;;;;;6.72;90.85;99980.63;213962;1316;22564;-70
2021/12/16 13:09:53;;;;;;;11.50;8.90;;;;;;;6.67;91.02;99974.61;213645;1316;24353;-72
2021/12/16 13:15:12;;;;;;;10.50;7.40;;;;;;;6.64;91.26;99978.96;214519;1318;25252;-72
2021/12/16 13:26:48;;;;;;;11.40;8.10;;;;;;;6.51;91.42;99976.58;214188;1321;25394;-72
2021/12/16 13:32:23;;;;;;;11.90;8.10;;;;;;;6.48;91.17;99971.16;214198;1315;25432;-71
2021/12/16 13:37:44;;;;;;;;;;;;;;;6.46;91.49;99962.95;211076;1315;3850351;-71
2021/12/16 13:42:55;;;;;;;11.30;8.40;;;;;;;6.47;91.70;99963.46;214156;1315;24374;-70
2021/12/16 13:48:24;;;;;;;11.50;8.70;;;;;;;6.49;91.72;99956.75;212702;1321;25334;-69
2021/12/16 14:10:32;;;;;;;15.10;9.20;;;;;;;6.51;92.05;99979.20;212463;1316;25274;-71
2021/12/16 14:38:13;;;;;;;10.80;8.90;;;;;;;6.40;92.63;100002.05;214109;1316;22616;-72
2021/12/16 14:43:36;;;;;;;10.90;8.40;;;;;;;6.39;92.40;100011.35;214074;1315;25308;-71
2021/12/16 14:48:40;;;;;;;9.70;7.20;;;;;;;6.37;92.72;100019.13;214072;1315;22609;-72
2021/12/16 14:53:54;;;;;;;10.30;6.80;;;;;;;6.35;92.89;100016.69;214076;1316;25414;-72
2021/12/16 14:59:13;;;;;;;10.20;7.30;;;;;;;6.34;92.73;100016.02;213813;1315;25569;-71
2021/12/16 15:04:24;;;;;;;13.20;8.00;;;;;;;6.34;93.03;100012.67;213635;1323;23340;-71
2021/12/16 15:10:14;;;;;;;10.20;7.40;;;;;;;6.36;93.31;100013.29;213514;1323;24339;-71
2021/12/16 15:15:31;;;;;;;10.40;7.70;;;;;;;6.37;93.08;100007.64;213545;1320;25538;-71
2021/12/16 15:33:13;;;;;;;7.60;6.30;;;;;;;6.33;93.29;100020.31;213727;1323;22681;-71
2021/12/16 15:43:08;;;;;;;;;;;;;;;;;;;;;
2021/12/16 15:48:18;;;;;;;6.80;6.10;;;;;;;6.31;93.15;100029.81;214003;1321;22736;-72
2021/12/16 15:53:53;;;;;;;9.10;6.50;;;;;;;6.31;93.48;100036.77;213943;1323;22590;-70
2021/12/16 15:59:12;;;;;;;10.80;7.70;;;;;;;6.29;93.31;100041.52;213614;1323;22709;-72
2021/12/16 16:04:23;;;;;;;8.90;7.40;;;;;;;6.27;93.35;100044.09;212674;1322;24412;-72
2021/12/16 16:09:52;;;;;;;10.50;7.80;;;;;;;6.26;93.25;100051.92;213542;1322;22631;-72
2021/12/16 16:15:16;;;;;;;8.60;6.50;;;;;;;6.26;93.51;100056.55;213655;1323;25400;-71
2021/12/16 16:20:19;;;;;;;;;;;;;;;6.25;93.48;100053.66;213624;1321;25249;-72
2021/12/16 16:25:44;;;;;;;9.30;6.80;;;;;;;6.25;93.56;100073.39;213736;1322;22707;-72
2021/12/16 16:30:59;;;;;;;10.70;7.70;;;;;;;6.23;93.85;100067.39;213559;1323;24317;-71
2021/12/16 16:36:36;;;;;;;5.00;4.50;;;;;;;6.22;93.57;100068.48;213516;1323;25415;-71
2021/12/16 16:43:02;;;;;;;4.10;3.20;;;;;;;6.19;93.12;100078.07;213787;1322;22673;-72
2021/12/16 16:48:26;;;;;;;7.00;4.70;;;;;;;6.14;93.14;100088.83;213513;1323;22623;-72
2021/12/16 16:54:30;;;;;;;4.70;3.10;;;;;;;6.13;93.09;100091.19;213783;1323;25275;-72
2021/12/16 16:59:46;;;;;;;2.80;2.40;;;;;;;6.10;93.10;100086.37;214222;1323;24305;-71
2021/12/16 17:05:18;;;;;;;5.30;3.40;;;;;;;6.10;93.20;100091.98;213537;1318;22797;-72
2021/12/16 17:10:29;;;;;;;4.00;3.40;;;;;;;6.08;92.81;100090.42;216385;1323;24282;-71
2021/12/16 17:17:11;;;;;;;4.60;3.30;;;;;;;6.08;92.78;100091.11;213825;1317;22657;-72
2021/12/16 17:21:31;;;;;;;4.90;3.60;;;;;;;6.09;92.49;100091.02;213601;1319;24270;-72
2021/12/16 17:26:51;;;;;;;5.50;4.40;;;;;;;6.09;92.33;100088.69;213719;1323;24288;-72
2021/12/16 17:32:39;;;;;;;7.90;5.80;;;;;;;6.05;92.11;100092.42;213703;1323;22675;-72
2021/12/16 17:37:58;;;;;;;9.40;7.10;;;;;;;6.03;91.87;100094.27;213413;1319;25537;-71
2021/12/16 17:43:06;;;;;;;9.50;7.00;;;;;;;6.04;92.24;100101.33;213547;1322;25378;-71
2021/12/16 17:48:15;;;;;;;9.70;7.20;;;;;;;6.01;91.63;100101.77;213815;1323;22790;-72
2021/12/16 17:53:21;;;;;;;7.60;5.80;;;;;;;5.99;91.59;100107.84;213603;1316;25454;-72
2021/12/16 17:58:30;;;;;;;7.00;5.30;;;;;;;5.97;91.28;100112.45;213610;1323;25447;-72
2021/12/16 18:03:48;;;;;;;8.30;6.00;;;;;;;5.94;91.05;100121.10;213516;1319;22647;-71
2021/12/16 18:09:15;;;;;;;;;;;;;;;5.94;91.21;100126.72;214008;1322;24263;-72
2021/12/16 18:14:25;;;;;;;10.20;6.50;;;;;;;5.94;91.09;100134.00;213886;1322;22663;-71
2021/12/16 18:19:56;;;;;;;12.10;7.90;;;;;;;5.90;90.87;100143.70;213788;1322;25477;-71
2021/12/16 18:25:13;;;;;;;10.10;6.20;;;;;;;5.92;91.13;100150.88;214971;1316;23171;-71
2021/12/16 18:30:24;;;;;;;8.90;6.00;;;;;;;5.93;90.65;100154.95;213473;1321;22596;-71
2021/12/16 18:35:58;;;;;;;8.00;5.10;;;;;;;5.90;90.16;100151.11;213680;1321;22587;-72
2021/12/16 18:41:07;;;;;;;8.10;5.30;;;;;;;5.82;89.68;100148.42;213724;1321;22595;-71
2021/12/16 18:46:42;;;;;;;5.60;4.50;;;;;;;5.75;89.44;100158.49;213805;1322;22626;-71
2021/12/16 18:52:13;;;;;;;6.60;4.00;;;;;;;5.65;88.57;100170.01;213807;1316;24299;-71
2021/12/16 18:57:21;;;;;;;6.20;4.10;;;;;;;5.60;87.98;100179.07;213740;1317;24250;-72
2021/12/16 19:02:29;;;;;;;8.20;5.00;;;;;;;5.56;87.59;100174.11;213607;1323;22738;-71
2021/12/16 19:07:42;;;;;;;10.00;6.40;;;;;;;5.53;88.20;100158.23;213503;1322;22804;-72
2021/12/16 19:12:46;;;;;;;7.00;4.70;;;;;;;5.51;88.08;100159.70;213937;1322;22781;-72
2021/12/16 19:17:58;;;;;;;5.70;3.90;;;;;;;5.52;87.83;100175.30;213729;1320;22596;-71
2021/12/16 19:23:15;;;;;;;7.30;4.30;;;;;;;5.51;87.46;100167.46;213590;1321;22620;-71
2021/12/16 19:28:26;;;;;;;7.00;4.20;;;;;;;5.47;87.34;100173.67;213871;1323;24254;-71
2021/12/16 19:33:31;;;;;;;7.80;4.50;;;;;;;5.42;87.22;100169.72;217483;1323;22577;-70
2021/12/16 19:38:36;;;;;;;6.70;5.20;;;;;;;5.38;86.83;100177.56;214937;1322;24259;-72
2021/12/16 19:43:39;;;;;;;7.80;5.20;;;;;;;5.34;87.08;100185.58;213573;1323;22584;-71
2021/12/16 19:48:54;;;;;;;8.70;5.80;;;;;;;5.29;86.91;100195.03;213895;1322;22635;-71
2021/12/16 19:54:17;;;;;;;9.30;5.00;;;;;;;5.26;86.81;100204.77;213538;1323;24326;-71
2021/12/16 19:59:47;;;;;;;9.40;5.80;;;;;;;5.26;86.94;100210.63;213571;1322;22685;-72
2021/12/16 20:05:05;;;;;;;7.30;5.00;;;;;;;5.26;86.95;100210.34;213566;1321;23004;-71
2021/12/16 20:10:41;;;;;;;7.00;4.40;;;;;;;5.25;86.90;100207.52;213602;1320;22581;-72
2021/12/16 20:15:59;;;;;;;7.60;4.30;;;;;;;5.24;86.93;100199.91;213781;1319;25397;-72
2021/12/16 20:21:13;;;;;;;6.70;4.40;;;;;;;5.22;86.77;100206.08;213407;1322;25392;-71
2021/12/16 20:26:31;;;;;;;9.30;5.60;;;;;;;5.24;86.55;100208.31;213410;1316;24635;-72
2021/12/16 20:31:44;;;;;;;8.50;4.80;;;;;;;5.21;86.73;100210.78;213240;1324;26451;-71
2021/12/16 20:37:05;;;;;;;6.80;4.00;;;;;;;5.20;86.66;100207.08;213816;1322;23282;-72
2021/12/16 20:42:16;;;;;;;6.40;4.10;;;;;;;5.21;86.66;100209.55;213731;1322;25521;-71
2021/12/16 20:47:22;;;;;;;6.20;4.00;;;;;;;5.22;86.22;100197.21;214067;1322;22628;-71
2021/12/16 20:52:36;;;;;;;7.00;4.20;;;;;;;5.20;86.09;100195.60;213490;1323;25447;-72
2021/12/16 20:57:53;;;;;;;7.00;4.00;;;;;;;5.17;85.99;100196.11;213644;1316;22653;-72
2021/12/16 21:03:01;;;;;;;6.80;3.40;;;;;;;5.17;85.96;100204.89;213649;1322;22647;-72
2021/12/16 21:08:10;;;;;;;7.70;4.20;;;;;;;5.15;86.15;100207.97;213605;1323;22593;-72
2021/12/16 21:13:27;;;;;;;6.60;4.30;;;;;;;5.16;85.76;100200.56;213614;1322;22565;-72
2021/12/16 21:18:52;;;;;;;8.60;4.80;;;;;;;5.16;85.83;100211.85;213478;1320;24407;-72
2021/12/16 21:23:59;;;;;;;8.40;4.70;;;;;;;5.16;85.93;100207.11;213426;1322;22741;-72
2021/12/16 21:30:05;;;;;;;7.20;4.10;;;;;;;5.14;85.69;100205.21;213318;1321;22656;-68
2021/12/16 21:35:29;;;;;;;9.60;4.90;;;;;;;5.13;85.64;100211.09;213422;1324;25252;-71
2021/12/16 21:41:13;;;;;;;8.30;5.00;;;;;;;5.12;85.75;100210.25;213089;1324;24463;-72
2021/12/16 21:46:19;;;;;;;10.10;4.40;;;;;;;5.12;86.06;100198.60;213634;1322;22822;-71
2021/12/16 21:51:23;;;;;;;9.70;4.80;;;;;;;5.13;85.89;100189.28;213847;1323;22646;-71
2021/12/16 21:56:31;;;;;;;9.10;4.90;;;;;;;5.14;85.94;100176.77;213902;1322;22661;-71
2021/12/16 22:01:36;;;;;;;9.80;4.90;;;;;;;5.12;85.67;100173.17;213690;1323;22560;-72
2021/12/16 22:06:54;;;;;;;8.30;4.50;;;;;;;5.09;85.53;100171.98;214390;1319;22586;-71
2021/12/16 22:12:03;;;;;;;8.90;4.80;;;;;;;5.07;86.00;100172.90;213740;1320;22656;-72
2021/12/16 22:17:06;;;;;;;9.00;4.50;;;;;;;5.06;85.55;100172.70;213463;1321;22618;-72
2021/12/16 22:22:10;;;;;;;6.90;4.50;;;;;;;5.04;85.71;100166.63;213512;1315;24286;-72
2021/12/16 22:27:15;;;;;;;7.30;4.30;;;;;;;5.04;85.60;100157.55;213550;1323;22622;-71
2021/12/16 22:33:23;;;;;;;12.90;5.10;;;;;;;5.03;85.59;100154.55;213543;1323;22587;-71
2021/12/16 22:38:29;;;;;;;11.30;4.60;;;;;;;5.01;85.56;100150.11;213734;1319;25416;-72
2021/12/16 22:43:40;;;;;;;8.20;4.80;;;;;;;4.99;85.43;100148.73;213912;1323;24460;-72
2021/12/16 22:48:46;;;;;;;10.50;5.30;;;;;;;5.00;85.53;100140.68;213749;1320;25558;-72
2021/12/16 22:53:51;;;;;;;9.50;4.80;;;;;;;4.95;85.14;100134.75;213471;1317;22751;-71
2021/12/16 22:58:55;;;;;;;7.50;4.40;;;;;;;4.91;85.43;100121.23;213627;1320;24336;-71
2021/12/16 23:03:58;;;;;;;6.70;3.90;;;;;;;4.87;85.10;100118.93;213982;1316;22596;-71
2021/12/16 23:09:15;;;;;;;8.80;4.20;;;;;;;4.85;85.03;100115.77;213788;1322;22654;-71
2021/12/16 23:14:20;;;;;;;10.20;5.10;;;;;;;4.82;85.25;100115.02;214449;1322;24086;-71
2021/12/16 23:25:46;;;;;;;7.60;4.00;;;;;;;4.80;84.70;100103.95;213768;1321;25451;-72
2021/12/16 23:30:51;;;;;;;11.80;3.50;;;;;;;4.80;84.55;100085.63;213759;1319;26533;-72
2021/12/16 23:35:54;;;;;;;6.80;3.80;;;;;;;4.79;83.92;100098.40;213507;1322;23217;-71
2021/12/16 23:41:06;;;;;;;9.10;3.80;;;;;;;4.79;83.88;100098.70;213696;1316;26416;-72
2021/12/16 23:57:24;;;;;;;7.50;2.90;;;;;;;4.70;83.37;100096.08;213567;1323;22686;-70
